sensor_id;sensor_type;location;lat;lon;timestamp;P1;durP1;ratioP1;P2;durP2;ratioP2
34960;SDS011;30789;52.030;7.110;2022-08-01T00:01:05;12.57;;;8.23;;
34960;SDS011;30789;52.030;7.110;2022-08-01T00:03:33;12.13;;;8.48;;
34960;SDS011;30789;52.030;7.110;2022-08-01T00:05:59;14.85;;;7.78;;
34960;SDS011;30789;52.030;7.110;2022-08-01T00:08:25;10.55;;;8.48;;
34960;SDS011;30789;52.030;7.110;2022-08-01T00:10:51;10.40;;;7.30;;
34960;SDS011;30789;52.030;7.110;2022-08-01T00:13:18;10.80;;;7.80;;
34960;SDS011;30789;52.030;7.110;2022-08-01T00:15:44;12.30;;;8.02;;
34960;SDS011;30789;52.030;7.110;2022-08-01T00:18:10;13.75;;;7.75;;
34960;SDS011;30789;52.030;7.110;2022-08-01T00:20:38;13.98;;;7.95;;
34960;SDS011;30789;52.030;7.110;2022-08-01T00:23:04;10.43;;;7.78;;
34960;SDS011;30789;52.030;7.110;2022-08-01T00:25:30;10.02;;;7.80;;
34960;SDS011;30789;52.030;7.110;2022-08-01T00:27:57;10.57;;;7.70;;
34960;SDS011;30789;52.030;7.110;2022-08-01T00:30:23;12.05;;;7.45;;
34960;SDS011;30789;52.030;7.110;2022-08-01T00:32:49;12.25;;;8.07;;
34960;SDS011;30789;52.030;7.110;2022-08-01T00:35:15;12.38;;;8.48;;
34960;SDS011;30789;52.030;7.110;2022-08-01T00:37:43;9.77;;;7.85;;
34960;SDS011;30789;52.030;7.110;2022-08-01T00:40:10;12.23;;;8.20;;
34960;SDS011;30789;52.030;7.110;2022-08-01T00:42:36;15.05;;;8.50;;
34960;SDS011;30789;52.030;7.110;2022-08-01T00:45:03;15.60;;;8.15;;
34960;SDS011;30789;52.030;7.110;2022-08-01T00:47:29;12.82;;;8.30;;
34960;SDS011;30789;52.030;7.110;2022-08-01T00:49:55;10.55;;;7.80;;
34960;SDS011;30789;52.030;7.110;2022-08-01T00:52:22;9.90;;;7.57;;
34960;SDS011;30789;52.030;7.110;2022-08-01T00:54:50;11.43;;;7.55;;
34960;SDS011;30789;52.030;7.110;2022-08-01T00:57:16;11.73;;;8.48;;
34960;SDS011;30789;52.030;7.110;2022-08-01T00:59:43;11.45;;;7.75;;
34960;SDS011;30789;52.030;7.110;2022-08-01T01:02:09;14.20;;;8.25;;
34960;SDS011;30789;52.030;7.110;2022-08-01T01:04:35;10.57;;;7.72;;
34960;SDS011;30789;52.030;7.110;2022-08-01T01:07:03;12.25;;;7.95;;
34960;SDS011;30789;52.030;7.110;2022-08-01T01:09:33;11.18;;;7.97;;
34960;SDS011;30789;52.030;7.110;2022-08-01T01:12:08;9.77;;;6.65;;
34960;SDS011;30789;52.030;7.110;2022-08-01T01:14:38;12.10;;;7.72;;
34960;SDS011;30789;52.030;7.110;2022-08-01T01:17:09;12.25;;;6.80;;
34960;SDS011;30789;52.030;7.110;2022-08-01T01:19:39;10.93;;;7.38;;
34960;SDS011;30789;52.030;7.110;2022-08-01T01:24:54;8.95;;;6.70;;
34960;SDS011;30789;52.030;7.110;2022-08-01T01:27:24;8.88;;;6.43;;
34960;SDS011;30789;52.030;7.110;2022-08-01T01:29:56;9.23;;;6.85;;
34960;SDS011;30789;52.030;7.110;2022-08-01T01:32:23;9.50;;;6.07;;
34960;SDS011;30789;52.030;7.110;2022-08-01T01:34:51;9.27;;;6.25;;
34960;SDS011;30789;52.030;7.110;2022-08-01T01:37:20;8.65;;;6.43;;
34960;SDS011;30789;52.030;7.110;2022-08-01T01:39:48;9.43;;;5.97;;
34960;SDS011;30789;52.030;7.110;2022-08-01T01:42:15;7.43;;;5.47;;
34960;SDS011;30789;52.030;7.110;2022-08-01T01:44:42;8.40;;;5.15;;
34960;SDS011;30789;52.030;7.110;2022-08-01T01:47:10;9.23;;;5.47;;
34960;SDS011;30789;52.030;7.110;2022-08-01T01:49:37;6.80;;;5.57;;
34960;SDS011;30789;52.030;7.110;2022-08-01T01:52:04;7.18;;;5.53;;
34960;SDS011;30789;52.030;7.110;2022-08-01T01:54:32;7.70;;;5.75;;
34960;SDS011;30789;52.030;7.110;2022-08-01T01:56:59;9.18;;;5.80;;
34960;SDS011;30789;52.030;7.110;2022-08-01T01:59:28;7.75;;;5.25;;
34960;SDS011;30789;52.030;7.110;2022-08-01T02:01:55;8.98;;;5.70;;
34960;SDS011;30789;52.030;7.110;2022-08-01T02:04:24;9.00;;;4.97;;
34960;SDS011;30789;52.030;7.110;2022-08-01T02:06:52;8.20;;;5.63;;
34960;SDS011;30789;52.030;7.110;2022-08-01T02:09:20;8.13;;;4.82;;
34960;SDS011;30789;52.030;7.110;2022-08-01T02:11:47;7.10;;;5.45;;
34960;SDS011;30789;52.030;7.110;2022-08-01T02:14:14;7.72;;;4.90;;
34960;SDS011;30789;52.030;7.110;2022-08-01T02:16:42;8.07;;;5.22;;
34960;SDS011;30789;52.030;7.110;2022-08-01T02:19:10;6.63;;;4.95;;
34960;SDS011;30789;52.030;7.110;2022-08-01T02:21:39;7.65;;;5.70;;
34960;SDS011;30789;52.030;7.110;2022-08-01T02:24:09;7.75;;;5.45;;
34960;SDS011;30789;52.030;7.110;2022-08-01T02:26:38;5.85;;;4.63;;
34960;SDS011;30789;52.030;7.110;2022-08-01T02:29:05;8.13;;;5.80;;
34960;SDS011;30789;52.030;7.110;2022-08-01T02:31:35;8.57;;;5.90;;
34960;SDS011;30789;52.030;7.110;2022-08-01T02:34:04;6.38;;;4.55;;
34960;SDS011;30789;52.030;7.110;2022-08-01T02:36:32;7.38;;;5.35;;
34960;SDS011;30789;52.030;7.110;2022-08-01T02:39:03;8.68;;;5.20;;
34960;SDS011;30789;52.030;7.110;2022-08-01T02:41:32;7.63;;;4.82;;
34960;SDS011;30789;52.030;7.110;2022-08-01T02:44:00;5.82;;;4.72;;
34960;SDS011;30789;52.030;7.110;2022-08-01T02:46:30;7.88;;;4.80;;
34960;SDS011;30789;52.030;7.110;2022-08-01T02:49:00;5.53;;;4.32;;
34960;SDS011;30789;52.030;7.110;2022-08-01T02:51:26;7.80;;;4.75;;
34960;SDS011;30789;52.030;7.110;2022-08-01T02:53:54;6.32;;;4.63;;
34960;SDS011;30789;52.030;7.110;2022-08-01T02:56:22;7.50;;;4.75;;
34960;SDS011;30789;52.030;7.110;2022-08-01T02:58:59;7.80;;;4.70;;
34960;SDS011;30789;52.030;7.110;2022-08-01T03:01:26;6.65;;;4.70;;
34960;SDS011;30789;52.030;7.110;2022-08-01T03:03:52;6.75;;;4.60;;
34960;SDS011;30789;52.030;7.110;2022-08-01T03:06:19;6.60;;;4.53;;
34960;SDS011;30789;52.030;7.110;2022-08-01T03:08:46;5.43;;;4.57;;
34960;SDS011;30789;52.030;7.110;2022-08-01T03:11:13;10.77;;;4.95;;
34960;SDS011;30789;52.030;7.110;2022-08-01T03:13:42;5.82;;;4.55;;
34960;SDS011;30789;52.030;7.110;2022-08-01T03:16:10;6.43;;;4.85;;
34960;SDS011;30789;52.030;7.110;2022-08-01T03:18:37;6.97;;;4.45;;
34960;SDS011;30789;52.030;7.110;2022-08-01T03:21:05;6.15;;;4.28;;
34960;SDS011;30789;52.030;7.110;2022-08-01T03:23:32;5.95;;;4.55;;
34960;SDS011;30789;52.030;7.110;2022-08-01T03:25:59;6.13;;;4.70;;
34960;SDS011;30789;52.030;7.110;2022-08-01T03:28:27;7.90;;;4.90;;
34960;SDS011;30789;52.030;7.110;2022-08-01T03:30:56;7.03;;;4.75;;
34960;SDS011;30789;52.030;7.110;2022-08-01T03:33:23;6.75;;;4.68;;
34960;SDS011;30789;52.030;7.110;2022-08-01T03:35:52;6.95;;;4.55;;
34960;SDS011;30789;52.030;7.110;2022-08-01T03:38:21;6.28;;;4.25;;
34960;SDS011;30789;52.030;7.110;2022-08-01T03:40:49;8.00;;;5.25;;
34960;SDS011;30789;52.030;7.110;2022-08-01T03:43:19;7.07;;;4.68;;
34960;SDS011;30789;52.030;7.110;2022-08-01T03:45:48;6.60;;;5.03;;
34960;SDS011;30789;52.030;7.110;2022-08-01T03:48:17;7.70;;;5.03;;
34960;SDS011;30789;52.030;7.110;2022-08-01T03:50:45;8.30;;;5.13;;
34960;SDS011;30789;52.030;7.110;2022-08-01T03:53:13;8.57;;;5.00;;
34960;SDS011;30789;52.030;7.110;2022-08-01T03:55:40;7.20;;;5.03;;
34960;SDS011;30789;52.030;7.110;2022-08-01T03:58:07;7.63;;;4.55;;
34960;SDS011;30789;52.030;7.110;2022-08-01T04:00:34;7.68;;;4.50;;
34960;SDS011;30789;52.030;7.110;2022-08-01T04:03:03;5.78;;;4.05;;
34960;SDS011;30789;52.030;7.110;2022-08-01T04:05:31;6.40;;;4.22;;
34960;SDS011;30789;52.030;7.110;2022-08-01T04:07:57;5.22;;;4.15;;
34960;SDS011;30789;52.030;7.110;2022-08-01T04:10:24;5.40;;;4.03;;
34960;SDS011;30789;52.030;7.110;2022-08-01T04:12:51;6.50;;;4.43;;
34960;SDS011;30789;52.030;7.110;2022-08-01T04:15:18;5.65;;;3.97;;
34960;SDS011;30789;52.030;7.110;2022-08-01T04:17:45;4.78;;;3.38;;
34960;SDS011;30789;52.030;7.110;2022-08-01T04:20:12;6.78;;;3.88;;
34960;SDS011;30789;52.030;7.110;2022-08-01T04:22:40;3.95;;;2.92;;
34960;SDS011;30789;52.030;7.110;2022-08-01T04:25:07;4.75;;;3.40;;
34960;SDS011;30789;52.030;7.110;2022-08-01T04:27:36;3.95;;;2.92;;
34960;SDS011;30789;52.030;7.110;2022-08-01T04:30:04;5.68;;;2.97;;
34960;SDS011;30789;52.030;7.110;2022-08-01T04:32:33;3.30;;;2.85;;
34960;SDS011;30789;52.030;7.110;2022-08-01T04:34:59;2.88;;;2.50;;
34960;SDS011;30789;52.030;7.110;2022-08-01T04:37:28;4.20;;;2.60;;
34960;SDS011;30789;52.030;7.110;2022-08-01T04:39:57;3.63;;;2.65;;
34960;SDS011;30789;52.030;7.110;2022-08-01T04:42:24;3.92;;;2.47;;
34960;SDS011;30789;52.030;7.110;2022-08-01T04:44:52;2.45;;;2.22;;
34960;SDS011;30789;52.030;7.110;2022-08-01T04:47:18;2.58;;;1.92;;
34960;SDS011;30789;52.030;7.110;2022-08-01T04:49:45;2.33;;;2.13;;
34960;SDS011;30789;52.030;7.110;2022-08-01T04:52:11;3.17;;;2.15;;
34960;SDS011;30789;52.030;7.110;2022-08-01T04:54:38;2.88;;;2.13;;
34960;SDS011;30789;52.030;7.110;2022-08-01T04:57:06;2.42;;;2.22;;
34960;SDS011;30789;52.030;7.110;2022-08-01T04:59:32;3.88;;;2.38;;
34960;SDS011;30789;52.030;7.110;2022-08-01T05:02:07;3.15;;;2.60;;
34960;SDS011;30789;52.030;7.110;2022-08-01T05:04:34;3.50;;;2.80;;
34960;SDS011;30789;52.030;7.110;2022-08-01T05:07:00;3.17;;;2.33;;
34960;SDS011;30789;52.030;7.110;2022-08-01T05:09:26;4.43;;;2.60;;
34960;SDS011;30789;52.030;7.110;2022-08-01T05:11:53;4.03;;;2.60;;
34960;SDS011;30789;52.030;7.110;2022-08-01T05:14:21;3.47;;;2.50;;
34960;SDS011;30789;52.030;7.110;2022-08-01T05:16:47;4.25;;;2.72;;
34960;SDS011;30789;52.030;7.110;2022-08-01T05:19:13;3.40;;;2.60;;
34960;SDS011;30789;52.030;7.110;2022-08-01T05:21:40;3.80;;;2.90;;
34960;SDS011;30789;52.030;7.110;2022-08-01T05:24:06;2.70;;;2.33;;
34960;SDS011;30789;52.030;7.110;2022-08-01T05:26:32;2.65;;;2.38;;
34960;SDS011;30789;52.030;7.110;2022-08-01T05:28:59;3.60;;;2.67;;
34960;SDS011;30789;52.030;7.110;2022-08-01T05:31:26;2.95;;;2.65;;
34960;SDS011;30789;52.030;7.110;2022-08-01T05:33:53;3.08;;;2.53;;
34960;SDS011;30789;52.030;7.110;2022-08-01T05:36:20;3.50;;;2.60;;
34960;SDS011;30789;52.030;7.110;2022-08-01T05:38:46;3.88;;;2.60;;
34960;SDS011;30789;52.030;7.110;2022-08-01T05:41:12;3.47;;;2.33;;
34960;SDS011;30789;52.030;7.110;2022-08-01T05:43:38;3.38;;;2.78;;
34960;SDS011;30789;52.030;7.110;2022-08-01T05:46:05;3.92;;;2.70;;
34960;SDS011;30789;52.030;7.110;2022-08-01T05:48:32;2.65;;;2.08;;
34960;SDS011;30789;52.030;7.110;2022-08-01T05:50:59;3.60;;;2.72;;
34960;SDS011;30789;52.030;7.110;2022-08-01T05:53:25;2.70;;;2.50;;
34960;SDS011;30789;52.030;7.110;2022-08-01T05:55:51;2.50;;;2.30;;
34960;SDS011;30789;52.030;7.110;2022-08-01T05:58:17;2.83;;;2.55;;
34960;SDS011;30789;52.030;7.110;2022-08-01T06:00:44;2.22;;;2.03;;
34960;SDS011;30789;52.030;7.110;2022-08-01T06:03:10;3.58;;;2.17;;
34960;SDS011;30789;52.030;7.110;2022-08-01T06:05:38;2.72;;;2.50;;
34960;SDS011;30789;52.030;7.110;2022-08-01T06:08:04;3.00;;;2.40;;
34960;SDS011;30789;52.030;7.110;2022-08-01T06:10:31;2.78;;;2.40;;
34960;SDS011;30789;52.030;7.110;2022-08-01T06:12:57;2.88;;;2.38;;
34960;SDS011;30789;52.030;7.110;2022-08-01T06:15:27;4.03;;;2.28;;
34960;SDS011;30789;52.030;7.110;2022-08-01T06:17:54;2.42;;;1.92;;
34960;SDS011;30789;52.030;7.110;2022-08-01T06:20:20;5.25;;;2.13;;
34960;SDS011;30789;52.030;7.110;2022-08-01T06:22:48;2.70;;;2.05;;
34960;SDS011;30789;52.030;7.110;2022-08-01T06:25:14;1.75;;;1.30;;
34960;SDS011;30789;52.030;7.110;2022-08-01T06:27:40;1.42;;;1.23;;
34960;SDS011;30789;52.030;7.110;2022-08-01T06:30:07;1.35;;;1.25;;
34960;SDS011;30789;52.030;7.110;2022-08-01T06:32:34;1.27;;;1.00;;
34960;SDS011;30789;52.030;7.110;2022-08-01T06:35:00;1.52;;;1.27;;
34960;SDS011;30789;52.030;7.110;2022-08-01T06:37:28;4.15;;;1.70;;
34960;SDS011;30789;52.030;7.110;2022-08-01T06:39:56;3.35;;;2.55;;
34960;SDS011;30789;52.030;7.110;2022-08-01T06:42:22;4.15;;;2.50;;
34960;SDS011;30789;52.030;7.110;2022-08-01T06:44:49;4.50;;;2.33;;
34960;SDS011;30789;52.030;7.110;2022-08-01T06:47:15;2.53;;;2.00;;
34960;SDS011;30789;52.030;7.110;2022-08-01T06:49:41;3.10;;;1.92;;
34960;SDS011;30789;52.030;7.110;2022-08-01T06:52:08;2.80;;;2.50;;
34960;SDS011;30789;52.030;7.110;2022-08-01T06:54:34;3.67;;;2.90;;
34960;SDS011;30789;52.030;7.110;2022-08-01T06:57:02;5.00;;;3.25;;
34960;SDS011;30789;52.030;7.110;2022-08-01T06:59:30;5.55;;;3.53;;
34960;SDS011;30789;52.030;7.110;2022-08-01T07:01:56;4.55;;;3.92;;
34960;SDS011;30789;52.030;7.110;2022-08-01T07:04:22;5.43;;;3.40;;
34960;SDS011;30789;52.030;7.110;2022-08-01T07:06:49;2.90;;;1.63;;
34960;SDS011;30789;52.030;7.110;2022-08-01T07:09:15;3.83;;;1.70;;
34960;SDS011;30789;52.030;7.110;2022-08-01T07:11:41;2.03;;;1.60;;
34960;SDS011;30789;52.030;7.110;2022-08-01T07:14:09;2.55;;;1.17;;
34960;SDS011;30789;52.030;7.110;2022-08-01T07:16:35;1.75;;;1.20;;
34960;SDS011;30789;52.030;7.110;2022-08-01T07:19:02;1.40;;;1.10;;
34960;SDS011;30789;52.030;7.110;2022-08-01T07:21:28;2.45;;;1.30;;
34960;SDS011;30789;52.030;7.110;2022-08-01T07:23:54;1.50;;;1.10;;
34960;SDS011;30789;52.030;7.110;2022-08-01T07:26:21;1.58;;;0.85;;
34960;SDS011;30789;52.030;7.110;2022-08-01T07:28:47;1.30;;;1.02;;
34960;SDS011;30789;52.030;7.110;2022-08-01T07:31:15;1.52;;;0.85;;
34960;SDS011;30789;52.030;7.110;2022-08-01T07:33:41;1.08;;;0.90;;
34960;SDS011;30789;52.030;7.110;2022-08-01T07:36:07;1.77;;;1.15;;
34960;SDS011;30789;52.030;7.110;2022-08-01T07:38:34;1.15;;;1.13;;
34960;SDS011;30789;52.030;7.110;2022-08-01T07:41:00;3.75;;;1.25;;
34960;SDS011;30789;52.030;7.110;2022-08-01T07:43:27;1.20;;;1.10;;
34960;SDS011;30789;52.030;7.110;2022-08-01T07:45:54;1.30;;;1.13;;
34960;SDS011;30789;52.030;7.110;2022-08-01T07:48:22;2.20;;;1.08;;
34960;SDS011;30789;52.030;7.110;2022-08-01T07:50:49;1.35;;;0.90;;
34960;SDS011;30789;52.030;7.110;2022-08-01T07:53:16;1.58;;;1.23;;
34960;SDS011;30789;52.030;7.110;2022-08-01T07:55:42;1.40;;;1.20;;
34960;SDS011;30789;52.030;7.110;2022-08-01T07:58:09;2.58;;;1.10;;
34960;SDS011;30789;52.030;7.110;2022-08-01T08:00:35;2.70;;;1.10;;
34960;SDS011;30789;52.030;7.110;2022-08-01T08:03:01;1.50;;;1.40;;
34960;SDS011;30789;52.030;7.110;2022-08-01T08:05:29;5.88;;;1.25;;
34960;SDS011;30789;52.030;7.110;2022-08-01T08:07:55;1.38;;;1.05;;
34960;SDS011;30789;52.030;7.110;2022-08-01T08:10:21;1.48;;;1.38;;
34960;SDS011;30789;52.030;7.110;2022-08-01T08:12:48;3.33;;;1.40;;
34960;SDS011;30789;52.030;7.110;2022-08-01T08:15:14;2.50;;;1.50;;
34960;SDS011;30789;52.030;7.110;2022-08-01T08:17:41;1.83;;;1.50;;
34960;SDS011;30789;52.030;7.110;2022-08-01T08:20:07;2.20;;;1.65;;
34960;SDS011;30789;52.030;7.110;2022-08-01T08:22:35;2.13;;;1.40;;
34960;SDS011;30789;52.030;7.110;2022-08-01T08:25:02;2.13;;;1.40;;
34960;SDS011;30789;52.030;7.110;2022-08-01T08:27:28;2.53;;;1.38;;
34960;SDS011;30789;52.030;7.110;2022-08-01T08:29:54;1.63;;;1.50;;
34960;SDS011;30789;52.030;7.110;2022-08-01T08:32:21;3.30;;;1.70;;
34960;SDS011;30789;52.030;7.110;2022-08-01T08:34:47;2.28;;;1.30;;
34960;SDS011;30789;52.030;7.110;2022-08-01T08:37:13;3.00;;;1.50;;
34960;SDS011;30789;52.030;7.110;2022-08-01T08:39:41;1.80;;;1.70;;
34960;SDS011;30789;52.030;7.110;2022-08-01T08:42:08;1.55;;;1.45;;
34960;SDS011;30789;52.030;7.110;2022-08-01T08:44:34;1.48;;;1.30;;
34960;SDS011;30789;52.030;7.110;2022-08-01T08:47:01;1.35;;;1.20;;
34960;SDS011;30789;52.030;7.110;2022-08-01T08:49:30;2.08;;;1.08;;
34960;SDS011;30789;52.030;7.110;2022-08-01T08:51:57;2.45;;;1.20;;
34960;SDS011;30789;52.030;7.110;2022-08-01T08:54:24;1.20;;;1.10;;
34960;SDS011;30789;52.030;7.110;2022-08-01T08:56:53;1.45;;;1.00;;
34960;SDS011;30789;52.030;7.110;2022-08-01T08:59:19;2.60;;;1.23;;
34960;SDS011;30789;52.030;7.110;2022-08-01T09:01:47;1.95;;;1.33;;
34960;SDS011;30789;52.030;7.110;2022-08-01T09:04:13;1.30;;;1.20;;
34960;SDS011;30789;52.030;7.110;2022-08-01T09:06:40;1.90;;;1.10;;
34960;SDS011;30789;52.030;7.110;2022-08-01T09:09:07;2.25;;;1.23;;
34960;SDS011;30789;52.030;7.110;2022-08-01T09:11:33;2.17;;;1.35;;
34960;SDS011;30789;52.030;7.110;2022-08-01T09:14:06;3.53;;;1.60;;
34960;SDS011;30789;52.030;7.110;2022-08-01T09:16:33;1.83;;;1.30;;
34960;SDS011;30789;52.030;7.110;2022-08-01T09:19:06;2.03;;;1.25;;
34960;SDS011;30789;52.030;7.110;2022-08-01T09:21:33;4.03;;;1.42;;
34960;SDS011;30789;52.030;7.110;2022-08-01T09:23:59;2.03;;;1.50;;
34960;SDS011;30789;52.030;7.110;2022-08-01T09:26:28;2.47;;;1.85;;
34960;SDS011;30789;52.030;7.110;2022-08-01T09:28:55;2.65;;;1.88;;
34960;SDS011;30789;52.030;7.110;2022-08-01T09:31:25;2.83;;;1.60;;
34960;SDS011;30789;52.030;7.110;2022-08-01T09:33:53;5.80;;;1.80;;
34960;SDS011;30789;52.030;7.110;2022-08-01T09:36:19;3.38;;;1.92;;
34960;SDS011;30789;52.030;7.110;2022-08-01T09:38:46;2.83;;;2.42;;
34960;SDS011;30789;52.030;7.110;2022-08-01T09:41:12;3.10;;;2.30;;
34960;SDS011;30789;52.030;7.110;2022-08-01T09:43:39;2.70;;;2.20;;
34960;SDS011;30789;52.030;7.110;2022-08-01T09:46:08;2.63;;;1.90;;
34960;SDS011;30789;52.030;7.110;2022-08-01T09:48:37;2.33;;;2.05;;
34960;SDS011;30789;52.030;7.110;2022-08-01T09:51:04;2.35;;;1.88;;
34960;SDS011;30789;52.030;7.110;2022-08-01T09:53:39;4.07;;;2.15;;
34960;SDS011;30789;52.030;7.110;2022-08-01T09:56:09;6.72;;;2.85;;
34960;SDS011;30789;52.030;7.110;2022-08-01T09:58:38;3.88;;;2.63;;
34960;SDS011;30789;52.030;7.110;2022-08-01T10:01:14;5.18;;;2.92;;
34960;SDS011;30789;52.030;7.110;2022-08-01T10:03:41;3.33;;;2.58;;
34960;SDS011;30789;52.030;7.110;2022-08-01T10:06:18;4.07;;;2.67;;
34960;SDS011;30789;52.030;7.110;2022-08-01T10:08:45;6.18;;;2.75;;
34960;SDS011;30789;52.030;7.110;2022-08-01T10:11:12;3.55;;;2.80;;
34960;SDS011;30789;52.030;7.110;2022-08-01T10:13:38;4.40;;;2.75;;
34960;SDS011;30789;52.030;7.110;2022-08-01T10:16:05;4.82;;;3.00;;
34960;SDS011;30789;52.030;7.110;2022-08-01T10:18:34;5.97;;;3.28;;
34960;SDS011;30789;52.030;7.110;2022-08-01T10:21:03;4.13;;;3.00;;
34960;SDS011;30789;52.030;7.110;2022-08-01T10:23:30;4.25;;;3.13;;
34960;SDS011;30789;52.030;7.110;2022-08-01T10:25:59;5.28;;;2.90;;
34960;SDS011;30789;52.030;7.110;2022-08-01T10:28:26;4.30;;;2.80;;
34960;SDS011;30789;52.030;7.110;2022-08-01T10:30:55;6.03;;;2.10;;
34960;SDS011;30789;52.030;7.110;2022-08-01T10:33:23;3.75;;;2.60;;
34960;SDS011;30789;52.030;7.110;2022-08-01T10:35:49;3.47;;;2.20;;
34960;SDS011;30789;52.030;7.110;2022-08-01T10:38:17;7.45;;;2.95;;
34960;SDS011;30789;52.030;7.110;2022-08-01T10:40:44;4.38;;;2.45;;
34960;SDS011;30789;52.030;7.110;2022-08-01T10:43:10;5.68;;;2.58;;
34960;SDS011;30789;52.030;7.110;2022-08-01T10:45:37;3.63;;;1.90;;
34960;SDS011;30789;52.030;7.110;2022-08-01T10:48:06;2.30;;;1.83;;
34960;SDS011;30789;52.030;7.110;2022-08-01T10:50:37;3.60;;;1.83;;
34960;SDS011;30789;52.030;7.110;2022-08-01T10:53:09;2.65;;;2.00;;
34960;SDS011;30789;52.030;7.110;2022-08-01T10:55:48;3.22;;;2.20;;
34960;SDS011;30789;52.030;7.110;2022-08-01T10:58:19;5.00;;;2.25;;
34960;SDS011;30789;52.030;7.110;2022-08-01T11:00:46;2.95;;;2.05;;
34960;SDS011;30789;52.030;7.110;2022-08-01T11:03:12;3.55;;;1.77;;
34960;SDS011;30789;52.030;7.110;2022-08-01T11:05:38;4.82;;;1.70;;
34960;SDS011;30789;52.030;7.110;2022-08-01T11:08:09;2.60;;;1.90;;
34960;SDS011;30789;52.030;7.110;2022-08-01T11:10:36;2.83;;;1.80;;
34960;SDS011;30789;52.030;7.110;2022-08-01T11:13:04;5.47;;;2.23;;
34960;SDS011;30789;52.030;7.110;2022-08-01T11:15:33;2.63;;;2.13;;
34960;SDS011;30789;52.030;7.110;2022-08-01T11:18:00;4.10;;;2.08;;
34960;SDS011;30789;52.030;7.110;2022-08-01T11:20:27;5.00;;;1.50;;
34960;SDS011;30789;52.030;7.110;2022-08-01T11:26:08;4.70;;;1.60;;
34960;SDS011;30789;52.030;7.110;2022-08-01T11:28:36;3.40;;;1.60;;
34960;SDS011;30789;52.030;7.110;2022-08-01T11:33:47;2.15;;;1.20;;
34960;SDS011;30789;52.030;7.110;2022-08-01T11:36:17;3.13;;;1.02;;
34960;SDS011;30789;52.030;7.110;2022-08-01T11:38:45;3.22;;;0.98;;
34960;SDS011;30789;52.030;7.110;2022-08-01T11:41:12;3.78;;;1.42;;
34960;SDS011;30789;52.030;7.110;2022-08-01T11:46:48;3.97;;;1.48;;
34960;SDS011;30789;52.030;7.110;2022-08-01T11:49:22;4.22;;;1.50;;
34960;SDS011;30789;52.030;7.110;2022-08-01T11:51:49;4.22;;;1.10;;
34960;SDS011;30789;52.030;7.110;2022-08-01T11:54:24;3.78;;;1.73;;
34960;SDS011;30789;52.030;7.110;2022-08-01T11:56:52;2.08;;;1.25;;
34960;SDS011;30789;52.030;7.110;2022-08-01T11:59:19;4.95;;;1.42;;
34960;SDS011;30789;52.030;7.110;2022-08-01T12:01:48;2.20;;;1.33;;
34960;SDS011;30789;52.030;7.110;2022-08-01T12:04:14;5.00;;;1.10;;
34960;SDS011;30789;52.030;7.110;2022-08-01T12:06:41;3.05;;;1.25;;
34960;SDS011;30789;52.030;7.110;2022-08-01T12:09:20;1.92;;;1.10;;
34960;SDS011;30789;52.030;7.110;2022-08-01T12:11:47;3.63;;;1.20;;
34960;SDS011;30789;52.030;7.110;2022-08-01T12:14:20;2.33;;;0.90;;
34960;SDS011;30789;52.030;7.110;2022-08-01T12:16:52;2.80;;;1.13;;
34960;SDS011;30789;52.030;7.110;2022-08-01T12:19:19;3.33;;;1.13;;
34960;SDS011;30789;52.030;7.110;2022-08-01T12:24:27;4.03;;;1.20;;
34960;SDS011;30789;52.030;7.110;2022-08-01T12:26:54;2.88;;;0.82;;
34960;SDS011;30789;52.030;7.110;2022-08-01T12:29:30;4.70;;;1.27;;
34960;SDS011;30789;52.030;7.110;2022-08-01T12:31:58;2.67;;;1.15;;
34960;SDS011;30789;52.030;7.110;2022-08-01T12:34:24;5.13;;;1.33;;
34960;SDS011;30789;52.030;7.110;2022-08-01T12:36:51;4.57;;;1.42;;
34960;SDS011;30789;52.030;7.110;2022-08-01T12:39:17;3.17;;;0.80;;
34960;SDS011;30789;52.030;7.110;2022-08-01T12:41:44;2.35;;;0.90;;
34960;SDS011;30789;52.030;7.110;2022-08-01T12:44:12;5.65;;;1.20;;
34960;SDS011;30789;52.030;7.110;2022-08-01T12:46:39;4.18;;;1.25;;
34960;SDS011;30789;52.030;7.110;2022-08-01T12:49:07;3.17;;;1.02;;
34960;SDS011;30789;52.030;7.110;2022-08-01T12:51:33;6.57;;;1.40;;
34960;SDS011;30789;52.030;7.110;2022-08-01T12:54:00;3.08;;;1.20;;
34960;SDS011;30789;52.030;7.110;2022-08-01T12:56:30;2.28;;;1.15;;
34960;SDS011;30789;52.030;7.110;2022-08-01T12:58:57;2.20;;;0.95;;
34960;SDS011;30789;52.030;7.110;2022-08-01T13:01:25;4.53;;;1.33;;
34960;SDS011;30789;52.030;7.110;2022-08-01T13:03:58;5.00;;;1.52;;
34960;SDS011;30789;52.030;7.110;2022-08-01T13:06:27;2.05;;;1.00;;
34960;SDS011;30789;52.030;7.110;2022-08-01T13:08:54;3.70;;;1.00;;
34960;SDS011;30789;52.030;7.110;2022-08-01T13:11:20;3.35;;;1.30;;
34960;SDS011;30789;52.030;7.110;2022-08-01T13:13:47;3.17;;;1.23;;
34960;SDS011;30789;52.030;7.110;2022-08-01T13:16:14;3.38;;;1.30;;
34960;SDS011;30789;52.030;7.110;2022-08-01T13:18:41;4.07;;;1.30;;
34960;SDS011;30789;52.030;7.110;2022-08-01T13:21:14;7.07;;;1.55;;
34960;SDS011;30789;52.030;7.110;2022-08-01T13:23:42;3.70;;;1.55;;
34960;SDS011;30789;52.030;7.110;2022-08-01T13:26:37;2.70;;;1.35;;
34960;SDS011;30789;52.030;7.110;2022-08-01T13:29:03;4.88;;;1.20;;
34960;SDS011;30789;52.030;7.110;2022-08-01T13:31:31;6.35;;;1.40;;
34960;SDS011;30789;52.030;7.110;2022-08-01T13:33:58;3.50;;;1.33;;
34960;SDS011;30789;52.030;7.110;2022-08-01T13:36:24;3.10;;;1.20;;
34960;SDS011;30789;52.030;7.110;2022-08-01T13:38:53;2.72;;;1.10;;
34960;SDS011;30789;52.030;7.110;2022-08-01T13:41:39;3.22;;;1.15;;
34960;SDS011;30789;52.030;7.110;2022-08-01T13:44:06;2.30;;;1.10;;
34960;SDS011;30789;52.030;7.110;2022-08-01T13:46:34;4.45;;;1.20;;
34960;SDS011;30789;52.030;7.110;2022-08-01T13:49:00;3.17;;;1.13;;
34960;SDS011;30789;52.030;7.110;2022-08-01T13:51:27;4.13;;;1.10;;
34960;SDS011;30789;52.030;7.110;2022-08-01T13:53:54;1.40;;;0.88;;
34960;SDS011;30789;52.030;7.110;2022-08-01T13:56:21;3.40;;;0.90;;
34960;SDS011;30789;52.030;7.110;2022-08-01T13:58:47;2.70;;;0.90;;
34960;SDS011;30789;52.030;7.110;2022-08-01T14:01:14;5.20;;;1.10;;
34960;SDS011;30789;52.030;7.110;2022-08-01T14:03:40;6.22;;;1.00;;
34960;SDS011;30789;52.030;7.110;2022-08-01T14:06:06;3.50;;;1.10;;
34960;SDS011;30789;52.030;7.110;2022-08-01T14:08:33;3.03;;;1.00;;
34960;SDS011;30789;52.030;7.110;2022-08-01T14:11:00;3.67;;;1.13;;
34960;SDS011;30789;52.030;7.110;2022-08-01T14:13:27;3.25;;;0.98;;
34960;SDS011;30789;52.030;7.110;2022-08-01T14:15:53;4.03;;;1.10;;
34960;SDS011;30789;52.030;7.110;2022-08-01T14:18:20;3.80;;;1.08;;
34960;SDS011;30789;52.030;7.110;2022-08-01T14:20:46;2.92;;;0.95;;
34960;SDS011;30789;52.030;7.110;2022-08-01T14:23:13;5.95;;;0.88;;
34960;SDS011;30789;52.030;7.110;2022-08-01T14:25:40;4.35;;;1.17;;
34960;SDS011;30789;52.030;7.110;2022-08-01T14:28:08;2.10;;;0.98;;
34960;SDS011;30789;52.030;7.110;2022-08-01T14:30:34;3.38;;;0.90;;
34960;SDS011;30789;52.030;7.110;2022-08-01T14:33:00;4.10;;;1.05;;
34960;SDS011;30789;52.030;7.110;2022-08-01T14:35:26;4.88;;;0.98;;
34960;SDS011;30789;52.030;7.110;2022-08-01T14:37:53;2.10;;;0.90;;
34960;SDS011;30789;52.030;7.110;2022-08-01T14:40:19;3.80;;;1.10;;
34960;SDS011;30789;52.030;7.110;2022-08-01T14:42:45;4.65;;;1.20;;
34960;SDS011;30789;52.030;7.110;2022-08-01T14:45:13;4.43;;;1.35;;
34960;SDS011;30789;52.030;7.110;2022-08-01T14:47:40;1.67;;;0.88;;
34960;SDS011;30789;52.030;7.110;2022-08-01T14:50:08;6.85;;;1.30;;
34960;SDS011;30789;52.030;7.110;2022-08-01T14:52:34;4.93;;;1.40;;
34960;SDS011;30789;52.030;7.110;2022-08-01T14:55:01;4.90;;;1.08;;
34960;SDS011;30789;52.030;7.110;2022-08-01T14:57:27;3.58;;;1.08;;
34960;SDS011;30789;52.030;7.110;2022-08-01T14:59:54;3.80;;;0.77;;
34960;SDS011;30789;52.030;7.110;2022-08-01T15:02:22;4.10;;;1.00;;